Latest Coastal Weather Observations for Port Augusta

IDS60701

Issued at 12:15 am CST Thursday 2 October 2014 (issued every 10 minutes, with the page automatically refreshed every 10 minutes)

About coastal observations | Map of coastal stations | Coastal observations for SA | Marine services | Other Formats
Station Details ID: 018201 Name: PORT AUGUSTA AERO Lat: -32.51 Lon: 137.72 Height: 13.97 m
Data from the previous 72 hours. | See also: Recent months at Port Augusta
Date/Time
CST
Temp

°C
Wind Pressure Rain
since 9am
mm
Weather Cloud Vis
km
Sea
Height
m
Swell
Dir
 
Speed
knots
Gust
knots
hPa Trend Height
m
Period
s
Dir
02/12:00am 13.7 SSE 14 23 1026.5 - 0.0 - - - - - - -
 
Date/Time
CST
Temp

°C
Wind Pressure Rain
since 9am
mm
Weather Cloud Vis
km
Sea
Height
m
Swell
Dir
 
Speed
knots
Gust
knots
hPa Trend Height
m
Period
s
Dir
01/11:30pm 13.9 SSE 16 23 1026.4 - 0.0 - - - - - - -
01/11:00pm 14.0 SSE 14 20 1026.5 - 0.0 - - - - - - -
01/10:30pm 14.0 SSE 13 18 1026.8 - 0.0 - - - - - - -
01/10:00pm 14.4 SSE 13 19 1026.9 - 0.0 - - - - - - -
01/09:30pm 14.9 S 14 19 1026.9 - 0.0 - - - - - - -
01/09:00pm 15.4 S 11 17 1026.9 - 0.0 - - - - - - -
01/08:30pm 15.1 S 11 17 1026.8 - 0.0 - - - - - - -
01/08:00pm 14.7 S 10 15 1026.8 - 0.0 - - - - - - -
01/07:30pm 15.0 SSE 11 16 1026.5 - 0.0 - - - - - - -
01/07:00pm 15.8 SSE 11 16 1026.0 - 0.0 - - - - - - -
01/06:30pm 16.3 SSE 13 19 1025.6 - 0.0 - - - - - - -
01/06:00pm 17.4 SSE 17 20 1025.4 - 0.0 - - - - - - -
01/05:30pm 18.2 SSE 18 24 1025.1 - 0.0 - - - - - - -
01/05:00pm 18.6 SSE 18 24 1024.9 - 0.0 - - - - - - -
01/04:30pm 19.5 SSE 18 25 1024.7 - 0.0 - - - - - - -
01/04:00pm 20.5 SSE 17 26 1024.6 - 0.0 - - - - - - -
01/03:30pm 21.4 SSE 16 21 1024.6 - 0.0 - - - - - - -
01/03:00pm 21.1 SSE 15 20 1024.8 - 0.0 - - - - - - -
01/02:30pm 20.9 SSE 14 19 1025.1 - 0.0 - - - - - - -
01/02:00pm 21.1 S 13 18 1025.6 - 0.0 - - - - - - -
01/01:30pm 20.7 SSE 13 19 1025.9 - 0.0 - - - - - - -
01/01:00pm 19.8 S 15 21 1026.2 - 0.0 - - - - - - -
01/12:30pm 19.9 S 16 24 1026.6 - 0.0 - - - - - - -
01/12:00pm 19.1 SSE 15 22 1027.1 - 0.0 - - - - - - -
01/11:30am 18.7 S 17 24 1027.3 - 0.0 - - - - - - -
01/11:00am 18.1 SSE 16 21 1027.6 - 0.0 - - - - - - -
01/10:30am 17.7 SSE 19 26 1027.8 - 0.0 - - - - - - -
01/10:00am 17.1 SSE 19 24 1027.9 - 0.0 - - - - - - -
01/09:35am 17.2 SSE 19 29 1027.8 - 0.0 - - - - - - -
01/09:30am 17.6 SSE 19 27 1027.9 - 0.0 - - - - - - -
01/09:00am 16.5 SSE 18 22 1027.7 - 0.0 - - - - - - -
01/08:30am 15.8 SSE 17 22 1027.4 - 0.0 - - - - - - -
01/08:00am 15.2 SSE 18 24 1027.2 - 0.0 - - - - - - -
01/07:30am 14.7 SE 13 20 1026.9 - 0.0 - - - - - - -
01/07:00am 14.0 SSE 11 14 1026.5 - 0.0 - - - - - - -
01/06:30am 13.1 SE 11 15 1026.2 - 0.0 - Partly cloudy - - - - -
01/06:00am 13.1 SE 13 19 1025.8 - 0.0 - Mostly cloudy - - - - -
01/05:30am 13.7 SSE 16 21 1025.2 - 0.0 - Cloudy - - - - -
01/05:00am 13.9 SSE 17 24 1024.8 - 0.0 - Cloudy - - - - -
01/04:30am 13.8 SSE 16 21 1024.5 - 0.0 - Cloudy - - - - -
01/04:00am 13.3 SSE 14 21 1024.4 - 0.0 - Partly cloudy - - - - -
01/03:30am 13.3 SSE 15 21 1024.2 - 0.0 - Partly cloudy - - - - -
01/03:00am 13.5 SE 10 15 1024.1 - 0.0 - Cloudy - - - - -
01/02:30am 12.7 S 10 13 1023.9 - 0.0 - Partly cloudy - - - - -
01/02:00am 12.9 SSW 9 12 1023.9 - 0.0 - Partly cloudy - - - - -
01/01:30am 13.2 SSW 8 10 1024.0 - 0.0 - Partly cloudy - - - - -
01/01:00am 14.0 S 10 12 1024.1 - 0.0 - Partly cloudy - - - - -
01/12:30am 14.3 S 11 14 1023.9 - 0.0 - Partly cloudy - - - - -
01/12:00am 15.0 SSE 10 13 1023.7 - 0.0 - Mostly cloudy - - - - -
 
Date/Time
CST
Temp

°C
Wind Pressure Rain
since 9am
mm
Weather Cloud Vis
km
Sea
Height
m
Swell
Dir
 
Speed
knots
Gust
knots
hPa Trend Height
m
Period
s
Dir
30/11:30pm 14.9 SSE 10 12 1023.6 - 0.0 - Cloudy - - - - -
30/11:00pm 14.5 SSE 4 7 1023.4 - 0.0 - Partly cloudy - - - - -
30/10:30pm 14.8 SSE 7 10 1023.2 - 0.0 - Partly cloudy - - - - -
30/10:00pm 15.3 SSE 11 17 1023.1 - 0.0 - Partly cloudy - - - - -
30/09:30pm 15.5 SSE 13 17 1022.8 - 0.0 - Partly cloudy - - - - -
30/09:00pm 15.7 SSE 16 22 1022.5 - 0.0 - - - - - - -
30/08:30pm 15.9 S 18 29 1022.0 - 0.0 - - - - - - -
30/08:24pm 16.0 SSE 19 29 1021.9 - 0.0 - - - - - - -
30/08:00pm 16.1 SSE 17 22 1021.4 - 0.0 - - - - - - -
30/07:30pm 16.4 SSE 17 24 1020.6 - 0.0 - - - - - - -
30/07:00pm 16.6 SSE 20 28 1019.8 - 0.0 - - - - - - -
30/06:30pm 17.1 SSE 23 30 1018.8 - 0.0 - - - - - - -
30/06:00pm 18.7 SSE 24 29 1018.1 - 0.0 - - - - - - -
30/05:30pm 20.8 SSE 21 30 1017.3 - 0.0 - - - - - - -
30/05:27pm 21.1 SSE 19 30 1017.1 - 0.0 - - - - - - -
30/05:00pm 22.0 SSE 13 18 1016.9 - 0.0 - - - - - - -
30/04:53pm 23.0 SSE 13 25 1017.0 - 0.0 - - - - - - -
30/04:30pm 27.1 SW 20 31 1016.3 - 0.0 - - - - - - -
30/04:27pm 27.4 WSW 20 31 1016.1 - 0.0 - - - - - - -
30/04:00pm 27.6 WSW 20 26 1015.9 - 0.0 - - - - - - -
30/03:30pm 28.4 SW 20 26 1015.6 - 0.0 - - - - - - -
30/03:03pm 28.5 SW 21 31 1015.4 - 0.0 - - - - - - -
30/03:00pm 28.6 SW 20 28 1015.5 - 0.0 - - - - - - -
30/02:31pm 28.9 WSW 18 28 1015.5 - 0.0 - - - - - - -
30/02:30pm 28.8 WSW 19 28 1015.5 - 0.0 - - - - - - -
30/02:00pm 29.4 WSW 19 29 1015.5 - 0.0 - - - - - - -
30/01:30pm 30.0 WSW 18 28 1015.5 - 0.0 - - - - - - -
30/01:18pm 29.5 W 20 40 1015.4 - 0.0 - - - - - - -
30/01:05pm 29.2 W 19 29 1015.7 - 0.0 - - - - - - -
30/01:00pm 28.9 W 19 25 1015.8 - 0.0 - - - - - - -
30/12:45pm 28.9 W 16 27 1015.8 - 0.0 - - - - - - -
30/12:30pm 28.6 W 16 22 1016.1 - 0.0 - - - - - - -
30/12:00pm 29.0 W 14 20 1016.1 - 0.0 - - - - - - -
30/11:30am 27.9 WSW 13 17 1016.4 - 0.0 - - - - - - -
30/11:00am 27.5 WNW 12 19 1016.6 - 0.0 - - - - - - -
30/10:30am 26.3 WSW 13 18 1017.1 - 0.0 - - - - - - -
30/10:00am 25.6 WSW 13 17 1017.1 - 0.0 - - - - - - -
30/09:30am 25.3 WSW 11 15 1016.8 - 0.0 - - - - - - -
30/09:00am 22.7 N 6 9 1016.7 - 0.0 - - - - - - -
30/08:30am 21.2 NNE 6 8 1016.8 - 0.0 - - - - - - -
30/08:00am 19.6 NNE 7 9 1016.6 - 0.0 - - - - - - -
30/07:30am 17.3 ENE 6 7 1016.3 - 0.0 - - - - - - -
30/07:00am 16.3 SSE 5 7 1015.8 - 0.0 - - - - - - -
30/06:30am 12.7 SW 9 10 1015.1 - 0.0 - - - - - - -
30/06:00am 8.8 W 5 7 1014.4 - 0.0 - - - - - - -
30/05:30am 8.0 W 3 4 1013.9 - 0.0 - - - - - - -
30/05:00am 8.7 WSW 6 7 1013.6 - 0.0 - - - - - - -
30/04:30am 8.6 CALM 0 0 1013.3 - 0.0 - - - - - - -
30/04:00am 9.0 CALM 0 0 1013.5 - 0.0 - - - - - - -
30/03:30am 9.9 CALM 0 0 1013.6 - 0.0 - - - - - - -
30/03:00am 10.0 SW 4 5 1013.8 - 0.0 - - - - - - -
30/02:30am 10.5 SW 6 7 1014.0 - 0.0 - - - - - - -
30/02:00am 12.0 WSW 5 7 1014.3 - 0.0 - - - - - - -
30/01:30am 12.1 N 2 6 1014.9 - 0.0 - - - - - - -
30/01:00am 12.5 NE 2 5 1015.0 - 0.0 - - - - - - -
30/12:30am 14.9 SW 2 6 1015.3 - 0.0 - - - - - - -
30/12:00am 15.4 SSE 3 6 1015.5 - 0.0 - - - - - - -
 
Date/Time
CST
Temp

°C
Wind Pressure Rain
since 9am
mm
Weather Cloud Vis
km
Sea
Height
m
Swell
Dir
 
Speed
knots
Gust
knots
hPa Trend Height
m
Period
s
Dir
29/11:30pm 16.6 S 6 7 1015.6 - 0.0 - - - - - - -
29/11:00pm 17.2 SE 4 6 1015.6 - 0.0 - - - - - - -
29/10:30pm 18.8 SE 5 9 1015.5 - 0.0 - - - - - - -
29/10:00pm 20.2 S 11 15 1015.2 - 0.0 - - - - - - -
29/09:30pm 20.6 SSE 8 13 1015.0 - 0.0 - - - - - - -
29/09:00pm 20.6 S 11 15 1014.9 - 0.0 - - - - - - -
29/08:30pm 21.0 SSW 10 14 1014.8 - 0.0 - - - - - - -
29/08:00pm 18.7 SW 6 8 1014.4 - 0.0 - - - - - - -
29/07:30pm 19.2 WSW 6 8 1013.8 - 0.0 - - - - - - -
29/07:00pm 21.3 W 6 7 1013.4 - 0.0 - - - - - - -
29/06:30pm 23.3 WNW 4 5 1012.9 - 0.0 - - - - - - -
29/06:00pm 25.4 WNW 11 14 1012.8 - 0.0 - - - - - - -
29/05:30pm 26.4 WNW 7 11 1012.7 - 0.0 - - - - - - -
29/05:00pm 27.0 W 9 13 1012.5 - 0.0 - - - - - - -
29/04:30pm 27.2 NW 12 17 1012.4 - 0.0 - - - - - - -
29/04:00pm 27.7 WNW 7 14 1012.4 - 0.0 - - - - - - -
29/03:30pm 27.2 WNW 9 17 1012.5 - 0.0 - - - - - - -
29/03:00pm 26.7 WNW 9 14 1012.9 - 0.0 - - - - - - -
29/02:30pm 26.7 NW 10 14 1013.4 - 0.0 - - - - - - -
29/02:00pm 26.1 W 7 16 1013.6 - 0.0 - - - - - - -
29/01:30pm 25.5 WSW 7 15 1014.1 - 0.0 - - - - - - -
29/01:00pm 24.1 W 6 10 1014.4 - 0.0 - - - - - - -
29/12:30pm 23.9 NE 5 8 1015.0 - 0.0 - - - - - - -
29/12:00pm 23.1 ESE 4 7 1015.5 - 0.0 - - - - - - -
29/11:30am 21.9 S 5 7 1016.0 - 0.0 - - - - - - -
29/11:00am 20.5 SSE 6 9 1016.5 - 0.0 - - - - - - -
29/10:30am 19.5 S 5 9 1016.9 - 0.0 - - - - - - -
29/10:00am 19.3 ESE 7 12 1017.2 - 0.0 - - - - - - -
29/09:30am 18.1 ESE 7 10 1017.5 - 0.0 - - - - - - -
29/09:00am 18.3 ESE 5 9 1017.6 - 0.0 - - - - - - -
29/08:30am 17.7 ESE 6 9 1017.7 - 0.0 - - - - - - -
29/08:00am 16.5 SSE 6 9 1017.5 - 0.0 - - - - - - -
29/07:30am 15.4 SW 6 7 1017.5 - 0.0 - - - - - - -
29/07:00am 12.6 SSW 6 8 1017.4 - 0.0 - - - - - - -
29/06:30am 9.7 WSW 7 9 1017.2 - 0.0 - - - - - - -
29/06:00am 8.4 W 7 7 1017.1 - 0.0 - - - - - - -
29/05:30am 9.3 WNW 4 5 1016.8 - 0.0 - - - - - - -
29/05:00am 11.2 E 2 4 1015.8 - 0.0 - - - - - - -
29/04:30am 10.8 SSW 8 9 1015.4 - 0.0 - - - - - - -
29/04:00am 12.5 SSW 9 11 1015.3 - 0.0 - - - - - - -
29/03:30am 12.6 S 11 13 1014.9 - 0.0 - - - - - - -
29/03:00am 11.0 S 6 9 1015.5 - 0.0 - - - - - - -
29/02:30am 11.5 SSW 8 10 1015.7 - 0.0 - - - - - - -
29/02:00am 12.9 S 9 10 1015.9 - 0.0 - - - - - - -
29/01:30am 14.6 S 10 13 1016.1 - 0.0 - - - - - - -
29/01:00am 14.8 S 10 12 1016.2 - 0.0 - - - - - - -
29/12:30am 15.4 S 10 12 1016.4 - 0.0 - - - - - - -

Other Formats:

Comma delimited format used in spreadsheet applications
http://www.bom.gov.au/fwo/IDS60701/IDS60701.95666.axf

JavaScript Object Notation format (JSON) in row-major order
http://www.bom.gov.au/fwo/IDS60701/IDS60701.95666.json